Terminal Aerodrome Forecast
Issued by NWS

Home | Current Version | Previous Version | Text Only | Print | Product List | Glossary On
Versions: 1 2 3 4 5 6 7 8 9 10 11 12 13 14 15 16 17 18 19 20 21 22 23 24 25 26 27
000
FTUS43 KGLD 011741
TAFMCK
TAF
KMCK 011741Z 0118/0218 31005KT P6SM OVC100
     FM012200 VRB05KT P6SM SCT100
     FM020100 12005KT P6SM SKC
     FM020600 VRB04KT P6SM SCT100
     FM021500 18010KT P6SM SKC=

USA.gov is the U.S. government's official web portal to all federal, state and local government web resources and services.